Sacramento, CA (95823)

7:08 PM PDT on August 31, 2015 (GMT -0700)
Bruceville/Jacinto/Dartford | | Change Station
CLOSE
Current Station
Personal Weather Station
Location: Sacramento, CA
Elevation: 25 ft
Nearby Weather Stations

Elev 25 ft 38.45 °N, 121.42 °W | Updated 4 seconds ago

Clear
Clear
87.6 °F
Feels Like 85 °F
N
3.6
Wind Variable Wind from SW
Gusts 4.9 mph

Today
High -- | Low -- °F
--% Chance of Precip.
Yesterday
High -- | Low -- °F
Precip. -- in
6:34 AM 7:37 PM
Waning Gibbous, 92% visible
Pressure 29.79 in
Visibility 10.0 miles
Clouds Clear
Heat Index 85 °F
Dew Point 53 °F
Humidity 31%
Rainfall 0.00 in
Snow Depth Not available.
UV 0 out of 12
Pollen 8.20 out of 12
Air Quality Not available.
Flu Activity Not available.
METAR KSAC 010153Z AUTO 22007KT 10SM CLR 31/11 A2978 RMK AO2 SLP086 T03060106 TSNO
Pressure 29.79 in
Visibility 10.0 miles
Clouds Clear
Heat Index 85 °F
Dew Point 53 °F
Humidity 31%
Rainfall 0.00 in
Snow Depth Not available.
UV 0 out of 12
Pollen 8.20 out of 12
Air Quality Not available.
Flu Activity Not available.
METAR KSAC 010153Z AUTO 22007KT 10SM CLR 31/11 A2978 RMK AO2 SLP086 T03060106 TSNO

10-Day Weather Forecast

×

Almanac

Astronomy

Aug. 31, 2015 Rise Set
Actual Time
Civil Twilight
Nautical Twilight
Astronomical Twilight
Moon
Length of Visible Light
Length of Day
Tomorrow will be .
, % of the Moon is Illuminated

Today's Extremes

State Highs State Lows

Community

WunderPhotos

Upload Photos

1,851,441 photos uploaded!

WunderBlogs® & News

Nearby

Air Quality

  Air Quality AQ Index Pollutant
Not available.

Snow Depth

Station Depth Elevation

Earthquake Activity

City Distance Mag. Time & Date
Minimum magnitude displayed is 2.5.

Coastal Water Temperatures

Place Temperature

Stations

Nearby Weather Stations

Station Location Temp. Windchill Dew Point Humidity Wind Precip. Elev Updated Type